sensor_id;sensor_type;location;lat;lon;timestamp;P1;durP1;ratioP1;P2;durP2;ratioP2
73954;SDS011;62306;52.516;13.290;2023-05-19T00:00:53;7.95;;;2.70;;
73954;SDS011;62306;52.516;13.290;2023-05-19T00:03:22;8.90;;;2.40;;
73954;SDS011;62306;52.516;13.290;2023-05-19T00:05:51;10.00;;;2.60;;
73954;SDS011;62306;52.516;13.290;2023-05-19T00:08:19;11.68;;;2.88;;
73954;SDS011;62306;52.516;13.290;2023-05-19T00:10:49;10.25;;;2.50;;
73954;SDS011;62306;52.516;13.290;2023-05-19T00:13:17;8.45;;;2.67;;
73954;SDS011;62306;52.516;13.290;2023-05-19T00:15:44;10.43;;;2.67;;
73954;SDS011;62306;52.516;13.290;2023-05-19T00:18:11;10.90;;;2.70;;
73954;SDS011;62306;52.516;13.290;2023-05-19T00:20:41;11.00;;;2.65;;
73954;SDS011;62306;52.516;13.290;2023-05-19T00:23:09;11.02;;;3.15;;
73954;SDS011;62306;52.516;13.290;2023-05-19T00:25:36;10.15;;;2.70;;
73954;SDS011;62306;52.516;13.290;2023-05-19T00:28:03;8.90;;;2.70;;
73954;SDS011;62306;52.516;13.290;2023-05-19T00:30:30;9.75;;;3.53;;
73954;SDS011;62306;52.516;13.290;2023-05-19T00:32:57;9.63;;;2.30;;
73954;SDS011;62306;52.516;13.290;2023-05-19T00:35:24;10.52;;;2.42;;
73954;SDS011;62306;52.516;13.290;2023-05-19T00:37:52;9.65;;;2.50;;
73954;SDS011;62306;52.516;13.290;2023-05-19T00:40:19;9.02;;;2.55;;
73954;SDS011;62306;52.516;13.290;2023-05-19T00:42:47;11.38;;;3.70;;
73954;SDS011;62306;52.516;13.290;2023-05-19T00:45:14;10.95;;;2.75;;
73954;SDS011;62306;52.516;13.290;2023-05-19T00:47:41;10.05;;;2.58;;
73954;SDS011;62306;52.516;13.290;2023-05-19T00:50:08;8.07;;;2.75;;
73954;SDS011;62306;52.516;13.290;2023-05-19T00:52:35;11.43;;;2.50;;
73954;SDS011;62306;52.516;13.290;2023-05-19T00:55:04;10.57;;;2.70;;
73954;SDS011;62306;52.516;13.290;2023-05-19T00:57:32;14.95;;;3.10;;
73954;SDS011;62306;52.516;13.290;2023-05-19T00:59:59;9.23;;;2.90;;
73954;SDS011;62306;52.516;13.290;2023-05-19T01:02:26;12.65;;;3.05;;
73954;SDS011;62306;52.516;13.290;2023-05-19T01:04:53;11.68;;;3.50;;
73954;SDS011;62306;52.516;13.290;2023-05-19T01:07:22;7.70;;;2.67;;
73954;SDS011;62306;52.516;13.290;2023-05-19T01:09:49;6.10;;;2.00;;
73954;SDS011;62306;52.516;13.290;2023-05-19T01:12:18;9.07;;;3.05;;
73954;SDS011;62306;52.516;13.290;2023-05-19T01:14:45;6.80;;;2.58;;
73954;SDS011;62306;52.516;13.290;2023-05-19T01:17:13;6.88;;;2.22;;
73954;SDS011;62306;52.516;13.290;2023-05-19T01:19:55;5.53;;;2.20;;
73954;SDS011;62306;52.516;13.290;2023-05-19T01:22:34;11.25;;;2.17;;
73954;SDS011;62306;52.516;13.290;2023-05-19T01:28:18;7.65;;;1.98;;
73954;SDS011;62306;52.516;13.290;2023-05-19T01:30:57;7.40;;;2.80;;
73954;SDS011;62306;52.516;13.290;2023-05-19T01:33:26;12.85;;;2.40;;
73954;SDS011;62306;52.516;13.290;2023-05-19T01:35:55;9.35;;;2.20;;
73954;SDS011;62306;52.516;13.290;2023-05-19T01:38:24;9.32;;;2.70;;
73954;SDS011;62306;52.516;13.290;2023-05-19T01:40:55;7.22;;;2.33;;
73954;SDS011;62306;52.516;13.290;2023-05-19T01:43:24;9.20;;;2.22;;
73954;SDS011;62306;52.516;13.290;2023-05-19T01:45:51;7.45;;;1.70;;
73954;SDS011;62306;52.516;13.290;2023-05-19T01:48:20;6.72;;;2.50;;
73954;SDS011;62306;52.516;13.290;2023-05-19T01:50:48;5.25;;;2.22;;
73954;SDS011;62306;52.516;13.290;2023-05-19T01:53:15;8.82;;;2.30;;
73954;SDS011;62306;52.516;13.290;2023-05-19T01:55:43;10.73;;;2.38;;
73954;SDS011;62306;52.516;13.290;2023-05-19T01:58:14;9.13;;;2.58;;
73954;SDS011;62306;52.516;13.290;2023-05-19T02:00:50;8.15;;;2.80;;
73954;SDS011;62306;52.516;13.290;2023-05-19T02:03:31;7.88;;;2.35;;
73954;SDS011;62306;52.516;13.290;2023-05-19T02:06:13;7.78;;;2.15;;
73954;SDS011;62306;52.516;13.290;2023-05-19T02:08:49;10.73;;;2.47;;
73954;SDS011;62306;52.516;13.290;2023-05-19T02:11:24;6.50;;;2.60;;
73954;SDS011;62306;52.516;13.290;2023-05-19T02:14:00;8.77;;;2.45;;
73954;SDS011;62306;52.516;13.290;2023-05-19T02:16:29;13.68;;;3.63;;
73954;SDS011;62306;52.516;13.290;2023-05-19T02:19:00;15.45;;;2.63;;
73954;SDS011;62306;52.516;13.290;2023-05-19T02:21:26;6.13;;;2.58;;
73954;SDS011;62306;52.516;13.290;2023-05-19T02:23:53;8.23;;;2.72;;
73954;SDS011;62306;52.516;13.290;2023-05-19T02:26:20;9.18;;;3.03;;
73954;SDS011;62306;52.516;13.290;2023-05-19T02:28:47;9.25;;;2.60;;
73954;SDS011;62306;52.516;13.290;2023-05-19T02:31:14;11.35;;;3.33;;
73954;SDS011;62306;52.516;13.290;2023-05-19T02:33:41;11.73;;;2.72;;
73954;SDS011;62306;52.516;13.290;2023-05-19T02:36:09;11.82;;;2.80;;
73954;SDS011;62306;52.516;13.290;2023-05-19T02:38:38;9.23;;;2.45;;
73954;SDS011;62306;52.516;13.290;2023-05-19T02:41:05;8.82;;;2.80;;
73954;SDS011;62306;52.516;13.290;2023-05-19T02:43:32;8.43;;;2.85;;
73954;SDS011;62306;52.516;13.290;2023-05-19T02:45:59;13.10;;;2.63;;
73954;SDS011;62306;52.516;13.290;2023-05-19T02:48:25;12.55;;;3.47;;
73954;SDS011;62306;52.516;13.290;2023-05-19T02:50:52;6.18;;;2.67;;
73954;SDS011;62306;52.516;13.290;2023-05-19T02:53:20;8.90;;;2.78;;
73954;SDS011;62306;52.516;13.290;2023-05-19T02:55:47;7.63;;;3.15;;
73954;SDS011;62306;52.516;13.290;2023-05-19T02:58:14;8.18;;;2.88;;
73954;SDS011;62306;52.516;13.290;2023-05-19T03:00:41;7.53;;;2.50;;
73954;SDS011;62306;52.516;13.290;2023-05-19T03:03:09;8.52;;;3.00;;
73954;SDS011;62306;52.516;13.290;2023-05-19T03:05:36;7.75;;;2.78;;
73954;SDS011;62306;52.516;13.290;2023-05-19T03:08:03;10.27;;;2.70;;
73954;SDS011;62306;52.516;13.290;2023-05-19T03:10:31;6.40;;;2.65;;
73954;SDS011;62306;52.516;13.290;2023-05-19T03:12:58;8.63;;;2.58;;
73954;SDS011;62306;52.516;13.290;2023-05-19T03:15:25;8.30;;;3.03;;
73954;SDS011;62306;52.516;13.290;2023-05-19T03:17:52;10.85;;;2.42;;
73954;SDS011;62306;52.516;13.290;2023-05-19T03:20:19;14.25;;;2.88;;
73954;SDS011;62306;52.516;13.290;2023-05-19T03:22:45;8.00;;;2.92;;
73954;SDS011;62306;52.516;13.290;2023-05-19T03:25:12;8.23;;;3.00;;
73954;SDS011;62306;52.516;13.290;2023-05-19T03:27:41;10.23;;;3.13;;
73954;SDS011;62306;52.516;13.290;2023-05-19T03:30:08;9.70;;;2.70;;
73954;SDS011;62306;52.516;13.290;2023-05-19T03:32:36;13.18;;;3.00;;
73954;SDS011;62306;52.516;13.290;2023-05-19T03:35:03;11.15;;;3.55;;
73954;SDS011;62306;52.516;13.290;2023-05-19T03:37:30;9.02;;;3.28;;
73954;SDS011;62306;52.516;13.290;2023-05-19T03:39:57;12.63;;;2.70;;
73954;SDS011;62306;52.516;13.290;2023-05-19T03:42:25;7.95;;;2.65;;
73954;SDS011;62306;52.516;13.290;2023-05-19T03:44:53;12.07;;;3.20;;
73954;SDS011;62306;52.516;13.290;2023-05-19T03:47:20;8.73;;;3.33;;
73954;SDS011;62306;52.516;13.290;2023-05-19T03:49:47;6.20;;;2.65;;
73954;SDS011;62306;52.516;13.290;2023-05-19T03:52:14;9.23;;;3.05;;
73954;SDS011;62306;52.516;13.290;2023-05-19T03:54:41;10.65;;;3.75;;
73954;SDS011;62306;52.516;13.290;2023-05-19T03:57:07;9.18;;;2.78;;
73954;SDS011;62306;52.516;13.290;2023-05-19T03:59:35;7.25;;;2.83;;
73954;SDS011;62306;52.516;13.290;2023-05-19T04:02:03;9.48;;;2.90;;
73954;SDS011;62306;52.516;13.290;2023-05-19T04:04:30;9.77;;;2.92;;
73954;SDS011;62306;52.516;13.290;2023-05-19T04:06:57;9.23;;;3.30;;
73954;SDS011;62306;52.516;13.290;2023-05-19T04:09:24;4.47;;;2.08;;
73954;SDS011;62306;52.516;13.290;2023-05-19T04:11:51;6.68;;;2.75;;
73954;SDS011;62306;52.516;13.290;2023-05-19T04:14:18;8.40;;;3.10;;
73954;SDS011;62306;52.516;13.290;2023-05-19T04:16:45;7.25;;;2.65;;
73954;SDS011;62306;52.516;13.290;2023-05-19T04:19:13;7.95;;;2.60;;
73954;SDS011;62306;52.516;13.290;2023-05-19T04:21:40;8.07;;;2.60;;
73954;SDS011;62306;52.516;13.290;2023-05-19T04:24:07;6.85;;;2.30;;
73954;SDS011;62306;52.516;13.290;2023-05-19T04:26:34;5.90;;;2.30;;
73954;SDS011;62306;52.516;13.290;2023-05-19T04:29:02;4.70;;;2.45;;
73954;SDS011;62306;52.516;13.290;2023-05-19T04:31:29;8.27;;;2.85;;
73954;SDS011;62306;52.516;13.290;2023-05-19T04:33:56;3.75;;;2.38;;
73954;SDS011;62306;52.516;13.290;2023-05-19T04:36:27;6.47;;;2.33;;
73954;SDS011;62306;52.516;13.290;2023-05-19T04:38:53;7.53;;;2.28;;
73954;SDS011;62306;52.516;13.290;2023-05-19T04:41:26;7.38;;;2.42;;
73954;SDS011;62306;52.516;13.290;2023-05-19T04:43:53;4.95;;;2.53;;
73954;SDS011;62306;52.516;13.290;2023-05-19T04:46:21;6.20;;;2.15;;
73954;SDS011;62306;52.516;13.290;2023-05-19T04:48:48;5.97;;;2.50;;
73954;SDS011;62306;52.516;13.290;2023-05-19T04:51:15;6.28;;;2.28;;
73954;SDS011;62306;52.516;13.290;2023-05-19T04:53:43;8.10;;;2.47;;
73954;SDS011;62306;52.516;13.290;2023-05-19T04:56:10;6.82;;;2.35;;
73954;SDS011;62306;52.516;13.290;2023-05-19T04:58:39;10.32;;;3.00;;
73954;SDS011;62306;52.516;13.290;2023-05-19T05:01:06;8.63;;;2.90;;
73954;SDS011;62306;52.516;13.290;2023-05-19T05:03:34;8.50;;;2.42;;
73954;SDS011;62306;52.516;13.290;2023-05-19T05:06:01;10.43;;;2.40;;
73954;SDS011;62306;52.516;13.290;2023-05-19T05:08:28;9.30;;;3.33;;
73954;SDS011;62306;52.516;13.290;2023-05-19T05:10:57;8.10;;;2.72;;
73954;SDS011;62306;52.516;13.290;2023-05-19T05:13:25;9.02;;;3.80;;
73954;SDS011;62306;52.516;13.290;2023-05-19T05:15:52;7.13;;;2.33;;
73954;SDS011;62306;52.516;13.290;2023-05-19T05:18:20;16.73;;;3.63;;
73954;SDS011;62306;52.516;13.290;2023-05-19T05:20:47;11.15;;;4.30;;
73954;SDS011;62306;52.516;13.290;2023-05-19T05:23:15;5.88;;;2.50;;
73954;SDS011;62306;52.516;13.290;2023-05-19T05:25:42;13.25;;;6.20;;
73954;SDS011;62306;52.516;13.290;2023-05-19T05:28:11;9.40;;;3.80;;
73954;SDS011;62306;52.516;13.290;2023-05-19T05:30:38;6.25;;;3.08;;
73954;SDS011;62306;52.516;13.290;2023-05-19T05:33:05;8.77;;;3.60;;
73954;SDS011;62306;52.516;13.290;2023-05-19T05:35:32;12.23;;;3.85;;
73954;SDS011;62306;52.516;13.290;2023-05-19T05:37:59;9.38;;;2.88;;
73954;SDS011;62306;52.516;13.290;2023-05-19T05:40:27;6.57;;;2.63;;
73954;SDS011;62306;52.516;13.290;2023-05-19T05:42:54;8.27;;;2.30;;
73954;SDS011;62306;52.516;13.290;2023-05-19T05:45:24;8.88;;;3.33;;
73954;SDS011;62306;52.516;13.290;2023-05-19T05:47:51;8.88;;;2.80;;
73954;SDS011;62306;52.516;13.290;2023-05-19T05:50:19;13.57;;;3.60;;
73954;SDS011;62306;52.516;13.290;2023-05-19T05:52:46;6.68;;;2.72;;
73954;SDS011;62306;52.516;13.290;2023-05-19T05:55:14;8.18;;;2.42;;
73954;SDS011;62306;52.516;13.290;2023-05-19T05:57:42;6.95;;;3.28;;
73954;SDS011;62306;52.516;13.290;2023-05-19T06:00:09;6.22;;;2.90;;
73954;SDS011;62306;52.516;13.290;2023-05-19T06:02:41;7.43;;;3.42;;
73954;SDS011;62306;52.516;13.290;2023-05-19T06:05:08;9.02;;;2.70;;
73954;SDS011;62306;52.516;13.290;2023-05-19T06:07:38;10.10;;;2.83;;
73954;SDS011;62306;52.516;13.290;2023-05-19T06:10:05;9.30;;;2.60;;
73954;SDS011;62306;52.516;13.290;2023-05-19T06:12:33;10.48;;;2.83;;
73954;SDS011;62306;52.516;13.290;2023-05-19T06:15:04;10.88;;;3.05;;
73954;SDS011;62306;52.516;13.290;2023-05-19T06:17:31;8.65;;;3.47;;
73954;SDS011;62306;52.516;13.290;2023-05-19T06:20:01;10.00;;;3.30;;
73954;SDS011;62306;52.516;13.290;2023-05-19T06:22:28;8.00;;;3.47;;
73954;SDS011;62306;52.516;13.290;2023-05-19T06:24:55;9.00;;;3.10;;
73954;SDS011;62306;52.516;13.290;2023-05-19T06:27:22;6.10;;;3.08;;
73954;SDS011;62306;52.516;13.290;2023-05-19T06:29:49;4.88;;;2.33;;
73954;SDS011;62306;52.516;13.290;2023-05-19T06:32:16;5.32;;;2.50;;
73954;SDS011;62306;52.516;13.290;2023-05-19T06:34:43;9.20;;;2.72;;
73954;SDS011;62306;52.516;13.290;2023-05-19T06:37:11;7.60;;;2.70;;
73954;SDS011;62306;52.516;13.290;2023-05-19T06:39:41;7.57;;;3.03;;
73954;SDS011;62306;52.516;13.290;2023-05-19T06:42:07;10.55;;;2.55;;
73954;SDS011;62306;52.516;13.290;2023-05-19T06:44:34;10.88;;;3.17;;
73954;SDS011;62306;52.516;13.290;2023-05-19T06:47:01;5.05;;;2.88;;
73954;SDS011;62306;52.516;13.290;2023-05-19T06:49:28;5.38;;;3.28;;
73954;SDS011;62306;52.516;13.290;2023-05-19T06:51:55;11.75;;;3.40;;
73954;SDS011;62306;52.516;13.290;2023-05-19T06:54:23;13.18;;;3.28;;
73954;SDS011;62306;52.516;13.290;2023-05-19T06:56:50;6.60;;;3.15;;
73954;SDS011;62306;52.516;13.290;2023-05-19T06:59:17;8.15;;;2.83;;
73954;SDS011;62306;52.516;13.290;2023-05-19T07:01:45;8.10;;;3.00;;
73954;SDS011;62306;52.516;13.290;2023-05-19T07:04:12;8.63;;;3.08;;
73954;SDS011;62306;52.516;13.290;2023-05-19T07:06:39;6.63;;;3.35;;
73954;SDS011;62306;52.516;13.290;2023-05-19T07:09:06;5.50;;;2.80;;
73954;SDS011;62306;52.516;13.290;2023-05-19T07:11:35;15.90;;;3.38;;
73954;SDS011;62306;52.516;13.290;2023-05-19T07:14:02;5.28;;;2.90;;
73954;SDS011;62306;52.516;13.290;2023-05-19T07:16:28;8.70;;;2.88;;
73954;SDS011;62306;52.516;13.290;2023-05-19T07:18:55;8.88;;;2.70;;
73954;SDS011;62306;52.516;13.290;2023-05-19T07:21:22;7.53;;;3.17;;
73954;SDS011;62306;52.516;13.290;2023-05-19T07:23:49;8.38;;;2.85;;
73954;SDS011;62306;52.516;13.290;2023-05-19T07:26:16;5.55;;;2.78;;
73954;SDS011;62306;52.516;13.290;2023-05-19T07:28:44;7.72;;;3.05;;
73954;SDS011;62306;52.516;13.290;2023-05-19T07:31:11;10.38;;;2.83;;
73954;SDS011;62306;52.516;13.290;2023-05-19T07:33:38;10.52;;;2.45;;
73954;SDS011;62306;52.516;13.290;2023-05-19T07:36:05;6.15;;;2.53;;
73954;SDS011;62306;52.516;13.290;2023-05-19T07:38:33;5.38;;;3.05;;
73954;SDS011;62306;52.516;13.290;2023-05-19T07:41:00;7.72;;;3.30;;
73954;SDS011;62306;52.516;13.290;2023-05-19T07:43:27;6.38;;;2.78;;
73954;SDS011;62306;52.516;13.290;2023-05-19T07:45:55;6.60;;;2.95;;
73954;SDS011;62306;52.516;13.290;2023-05-19T07:48:22;8.80;;;2.50;;
73954;SDS011;62306;52.516;13.290;2023-05-19T07:50:50;5.45;;;2.67;;
73954;SDS011;62306;52.516;13.290;2023-05-19T07:53:16;5.63;;;2.50;;
73954;SDS011;62306;52.516;13.290;2023-05-19T07:55:44;10.13;;;2.72;;
73954;SDS011;62306;52.516;13.290;2023-05-19T07:58:11;9.35;;;3.03;;
73954;SDS011;62306;52.516;13.290;2023-05-19T08:00:38;11.13;;;2.92;;
73954;SDS011;62306;52.516;13.290;2023-05-19T08:03:08;9.60;;;2.70;;
73954;SDS011;62306;52.516;13.290;2023-05-19T08:05:35;14.48;;;3.08;;
73954;SDS011;62306;52.516;13.290;2023-05-19T08:08:02;5.68;;;2.85;;
73954;SDS011;62306;52.516;13.290;2023-05-19T08:10:30;7.78;;;2.88;;
73954;SDS011;62306;52.516;13.290;2023-05-19T08:12:56;4.97;;;2.70;;
73954;SDS011;62306;52.516;13.290;2023-05-19T08:15:23;6.40;;;2.47;;
73954;SDS011;62306;52.516;13.290;2023-05-19T08:17:50;6.55;;;2.95;;
73954;SDS011;62306;52.516;13.290;2023-05-19T08:20:19;9.63;;;3.65;;
73954;SDS011;62306;52.516;13.290;2023-05-19T08:22:46;11.10;;;4.32;;
73954;SDS011;62306;52.516;13.290;2023-05-19T08:25:13;6.03;;;2.92;;
73954;SDS011;62306;52.516;13.290;2023-05-19T08:27:40;11.73;;;3.95;;
73954;SDS011;62306;52.516;13.290;2023-05-19T08:30:08;5.82;;;3.22;;
73954;SDS011;62306;52.516;13.290;2023-05-19T08:32:35;5.13;;;3.22;;
73954;SDS011;62306;52.516;13.290;2023-05-19T08:35:02;4.70;;;2.97;;
73954;SDS011;62306;52.516;13.290;2023-05-19T08:37:31;9.65;;;2.70;;
73954;SDS011;62306;52.516;13.290;2023-05-19T08:39:57;6.55;;;2.67;;
73954;SDS011;62306;52.516;13.290;2023-05-19T08:42:24;6.78;;;2.70;;
73954;SDS011;62306;52.516;13.290;2023-05-19T08:44:51;13.88;;;2.67;;
73954;SDS011;62306;52.516;13.290;2023-05-19T08:47:18;7.80;;;2.50;;
73954;SDS011;62306;52.516;13.290;2023-05-19T08:49:48;13.00;;;4.35;;
73954;SDS011;62306;52.516;13.290;2023-05-19T08:52:20;8.05;;;3.03;;
73954;SDS011;62306;52.516;13.290;2023-05-19T08:54:59;6.75;;;2.88;;
73954;SDS011;62306;52.516;13.290;2023-05-19T08:57:30;7.38;;;2.58;;
73954;SDS011;62306;52.516;13.290;2023-05-19T08:59:58;4.85;;;2.80;;
73954;SDS011;62306;52.516;13.290;2023-05-19T09:02:25;4.85;;;2.47;;
73954;SDS011;62306;52.516;13.290;2023-05-19T09:04:53;7.57;;;2.53;;
73954;SDS011;62306;52.516;13.290;2023-05-19T09:07:21;5.88;;;2.40;;
73954;SDS011;62306;52.516;13.290;2023-05-19T09:09:50;4.53;;;2.10;;
73954;SDS011;62306;52.516;13.290;2023-05-19T09:12:18;3.58;;;1.80;;
73954;SDS011;62306;52.516;13.290;2023-05-19T09:14:46;6.88;;;2.22;;
73954;SDS011;62306;52.516;13.290;2023-05-19T09:17:13;3.47;;;1.77;;
73954;SDS011;62306;52.516;13.290;2023-05-19T09:19:41;6.20;;;1.90;;
73954;SDS011;62306;52.516;13.290;2023-05-19T09:22:11;2.88;;;1.95;;
73954;SDS011;62306;52.516;13.290;2023-05-19T09:24:43;2.95;;;1.65;;
73954;SDS011;62306;52.516;13.290;2023-05-19T09:27:10;4.13;;;1.98;;
73954;SDS011;62306;52.516;13.290;2023-05-19T09:29:41;1.88;;;1.20;;
73954;SDS011;62306;52.516;13.290;2023-05-19T09:32:08;6.80;;;1.75;;
73954;SDS011;62306;52.516;13.290;2023-05-19T09:34:38;7.70;;;1.50;;
73954;SDS011;62306;52.516;13.290;2023-05-19T09:37:07;3.13;;;1.42;;
73954;SDS011;62306;52.516;13.290;2023-05-19T09:39:37;4.22;;;1.30;;
73954;SDS011;62306;52.516;13.290;2023-05-19T09:42:04;2.97;;;1.60;;
73954;SDS011;62306;52.516;13.290;2023-05-19T09:44:33;5.45;;;1.58;;
73954;SDS011;62306;52.516;13.290;2023-05-19T09:47:02;2.90;;;1.58;;
73954;SDS011;62306;52.516;13.290;2023-05-19T09:49:29;8.10;;;1.60;;
73954;SDS011;62306;52.516;13.290;2023-05-19T09:51:57;4.22;;;1.20;;
73954;SDS011;62306;52.516;13.290;2023-05-19T09:54:25;3.28;;;1.60;;
73954;SDS011;62306;52.516;13.290;2023-05-19T09:56:56;1.60;;;1.08;;
73954;SDS011;62306;52.516;13.290;2023-05-19T09:59:24;3.33;;;1.42;;
73954;SDS011;62306;52.516;13.290;2023-05-19T10:01:52;9.07;;;1.38;;
73954;SDS011;62306;52.516;13.290;2023-05-19T10:04:22;2.28;;;1.23;;
73954;SDS011;62306;52.516;13.290;2023-05-19T10:06:50;2.08;;;1.15;;
73954;SDS011;62306;52.516;13.290;2023-05-19T10:09:19;1.83;;;1.25;;
73954;SDS011;62306;52.516;13.290;2023-05-19T10:11:49;3.20;;;1.25;;
73954;SDS011;62306;52.516;13.290;2023-05-19T10:14:17;2.92;;;1.35;;
73954;SDS011;62306;52.516;13.290;2023-05-19T10:16:47;8.27;;;1.38;;
73954;SDS011;62306;52.516;13.290;2023-05-19T10:19:16;1.80;;;1.50;;
73954;SDS011;62306;52.516;13.290;2023-05-19T10:21:48;5.90;;;2.00;;
73954;SDS011;62306;52.516;13.290;2023-05-19T10:24:16;6.25;;;2.42;;
73954;SDS011;62306;52.516;13.290;2023-05-19T10:26:43;2.85;;;1.45;;
73954;SDS011;62306;52.516;13.290;2023-05-19T10:29:13;3.22;;;1.30;;
73954;SDS011;62306;52.516;13.290;2023-05-19T10:31:43;3.95;;;1.35;;
73954;SDS011;62306;52.516;13.290;2023-05-19T10:34:21;2.75;;;1.33;;
73954;SDS011;62306;52.516;13.290;2023-05-19T10:37:05;3.08;;;1.38;;
73954;SDS011;62306;52.516;13.290;2023-05-19T10:39:38;2.65;;;1.33;;
73954;SDS011;62306;52.516;13.290;2023-05-19T10:42:11;3.45;;;1.33;;
73954;SDS011;62306;52.516;13.290;2023-05-19T10:47:21;2.53;;;1.38;;
73954;SDS011;62306;52.516;13.290;2023-05-19T10:49:48;5.18;;;1.20;;
73954;SDS011;62306;52.516;13.290;2023-05-19T10:52:19;6.63;;;3.63;;
73954;SDS011;62306;52.516;13.290;2023-05-19T10:54:49;1.88;;;1.10;;
73954;SDS011;62306;52.516;13.290;2023-05-19T10:57:18;1.42;;;1.20;;
73954;SDS011;62306;52.516;13.290;2023-05-19T10:59:50;1.98;;;1.20;;
73954;SDS011;62306;52.516;13.290;2023-05-19T11:05:06;5.40;;;1.40;;
73954;SDS011;62306;52.516;13.290;2023-05-19T11:07:36;2.85;;;1.45;;
73954;SDS011;62306;52.516;13.290;2023-05-19T11:10:06;3.28;;;1.30;;
73954;SDS011;62306;52.516;13.290;2023-05-19T11:12:43;2.55;;;1.30;;
73954;SDS011;62306;52.516;13.290;2023-05-19T11:15:11;3.10;;;1.33;;
73954;SDS011;62306;52.516;13.290;2023-05-19T11:17:39;4.13;;;1.42;;
73954;SDS011;62306;52.516;13.290;2023-05-19T11:20:07;7.13;;;1.63;;
73954;SDS011;62306;52.516;13.290;2023-05-19T11:22:58;4.53;;;1.55;;
73954;SDS011;62306;52.516;13.290;2023-05-19T11:25:42;3.00;;;1.27;;
73954;SDS011;62306;52.516;13.290;2023-05-19T11:28:10;4.72;;;1.13;;
73954;SDS011;62306;52.516;13.290;2023-05-19T11:30:39;2.63;;;1.40;;
73954;SDS011;62306;52.516;13.290;2023-05-19T11:33:07;2.03;;;1.27;;
73954;SDS011;62306;52.516;13.290;2023-05-19T11:35:35;5.00;;;1.05;;
73954;SDS011;62306;52.516;13.290;2023-05-19T11:38:03;7.35;;;1.38;;
73954;SDS011;62306;52.516;13.290;2023-05-19T11:40:31;5.18;;;1.80;;
73954;SDS011;62306;52.516;13.290;2023-05-19T11:42:58;6.65;;;1.60;;
73954;SDS011;62306;52.516;13.290;2023-05-19T11:45:27;1.58;;;1.08;;
73954;SDS011;62306;52.516;13.290;2023-05-19T11:47:56;10.45;;;1.50;;
73954;SDS011;62306;52.516;13.290;2023-05-19T11:50:23;3.40;;;1.50;;
73954;SDS011;62306;52.516;13.290;2023-05-19T11:52:51;2.42;;;1.33;;
73954;SDS011;62306;52.516;13.290;2023-05-19T11:55:20;7.50;;;1.40;;
73954;SDS011;62306;52.516;13.290;2023-05-19T11:57:55;4.30;;;1.33;;
73954;SDS011;62306;52.516;13.290;2023-05-19T12:00:23;3.67;;;1.20;;
73954;SDS011;62306;52.516;13.290;2023-05-19T12:02:50;5.10;;;1.50;;
73954;SDS011;62306;52.516;13.290;2023-05-19T12:05:18;2.28;;;1.30;;
73954;SDS011;62306;52.516;13.290;2023-05-19T12:07:46;3.80;;;1.38;;
73954;SDS011;62306;52.516;13.290;2023-05-19T12:10:15;2.63;;;1.08;;
73954;SDS011;62306;52.516;13.290;2023-05-19T12:12:45;1.83;;;1.20;;
73954;SDS011;62306;52.516;13.290;2023-05-19T12:15:13;7.18;;;1.52;;
73954;SDS011;62306;52.516;13.290;2023-05-19T12:17:44;3.28;;;1.30;;
73954;SDS011;62306;52.516;13.290;2023-05-19T12:20:14;3.58;;;1.30;;
73954;SDS011;62306;52.516;13.290;2023-05-19T12:22:41;2.47;;;1.42;;
73954;SDS011;62306;52.516;13.290;2023-05-19T12:25:09;4.38;;;1.30;;
73954;SDS011;62306;52.516;13.290;2023-05-19T12:27:36;3.25;;;1.40;;
73954;SDS011;62306;52.516;13.290;2023-05-19T12:30:05;4.38;;;1.67;;
73954;SDS011;62306;52.516;13.290;2023-05-19T12:32:32;1.65;;;1.30;;
73954;SDS011;62306;52.516;13.290;2023-05-19T12:35:01;3.58;;;1.50;;
73954;SDS011;62306;52.516;13.290;2023-05-19T12:37:29;1.67;;;1.05;;
73954;SDS011;62306;52.516;13.290;2023-05-19T12:39:59;2.05;;;1.30;;
73954;SDS011;62306;52.516;13.290;2023-05-19T12:42:28;2.97;;;1.55;;
73954;SDS011;62306;52.516;13.290;2023-05-19T12:44:56;1.98;;;1.25;;
73954;SDS011;62306;52.516;13.290;2023-05-19T12:47:30;2.78;;;1.30;;
73954;SDS011;62306;52.516;13.290;2023-05-19T12:50:02;5.47;;;1.52;;
73954;SDS011;62306;52.516;13.290;2023-05-19T12:52:30;3.10;;;1.35;;
73954;SDS011;62306;52.516;13.290;2023-05-19T12:54:59;4.65;;;1.67;;
73954;SDS011;62306;52.516;13.290;2023-05-19T12:57:29;2.65;;;1.42;;
73954;SDS011;62306;52.516;13.290;2023-05-19T12:59:59;4.50;;;1.42;;
73954;SDS011;62306;52.516;13.290;2023-05-19T13:02:32;1.98;;;1.42;;
73954;SDS011;62306;52.516;13.290;2023-05-19T13:05:01;4.63;;;1.17;;
73954;SDS011;62306;52.516;13.290;2023-05-19T13:07:28;3.22;;;1.48;;
73954;SDS011;62306;52.516;13.290;2023-05-19T13:09:56;6.90;;;1.60;;
73954;SDS011;62306;52.516;13.290;2023-05-19T13:12:23;5.75;;;2.25;;
73954;SDS011;62306;52.516;13.290;2023-05-19T13:14:50;6.10;;;1.90;;
73954;SDS011;62306;52.516;13.290;2023-05-19T13:17:17;3.90;;;1.77;;
73954;SDS011;62306;52.516;13.290;2023-05-19T13:19:46;3.63;;;1.58;;
73954;SDS011;62306;52.516;13.290;2023-05-19T13:22:13;5.22;;;1.48;;
73954;SDS011;62306;52.516;13.290;2023-05-19T13:24:40;3.28;;;1.60;;
73954;SDS011;62306;52.516;13.290;2023-05-19T13:27:07;6.05;;;1.77;;
73954;SDS011;62306;52.516;13.290;2023-05-19T13:29:34;2.60;;;1.80;;
73954;SDS011;62306;52.516;13.290;2023-05-19T13:32:01;4.55;;;1.90;;
73954;SDS011;62306;52.516;13.290;2023-05-19T13:34:28;3.88;;;1.73;;
73954;SDS011;62306;52.516;13.290;2023-05-19T13:36:57;4.65;;;1.77;;
73954;SDS011;62306;52.516;13.290;2023-05-19T13:39:24;7.07;;;1.80;;
73954;SDS011;62306;52.516;13.290;2023-05-19T13:41:51;2.97;;;2.10;;
73954;SDS011;62306;52.516;13.290;2023-05-19T13:44:17;2.85;;;1.55;;
73954;SDS011;62306;52.516;13.290;2023-05-19T13:46:44;7.90;;;2.60;;
73954;SDS011;62306;52.516;13.290;2023-05-19T13:49:11;4.97;;;2.30;;
73954;SDS011;62306;52.516;13.290;2023-05-19T13:51:40;4.40;;;1.42;;
73954;SDS011;62306;52.516;13.290;2023-05-19T13:54:09;3.25;;;1.60;;
73954;SDS011;62306;52.516;13.290;2023-05-19T13:56:36;5.07;;;1.73;;
73954;SDS011;62306;52.516;13.290;2023-05-19T13:59:03;2.90;;;1.80;;
73954;SDS011;62306;52.516;13.290;2023-05-19T14:01:30;3.88;;;1.40;;
73954;SDS011;62306;52.516;13.290;2023-05-19T14:03:57;2.60;;;1.70;;
73954;SDS011;62306;52.516;13.290;2023-05-19T14:06:23;2.40;;;1.75;;
73954;SDS011;62306;52.516;13.290;2023-05-19T14:08:51;3.50;;;1.90;;
73954;SDS011;62306;52.516;13.290;2023-05-19T14:11:20;3.88;;;1.48;;
73954;SDS011;62306;52.516;13.290;2023-05-19T14:13:47;3.55;;;1.70;;
73954;SDS011;62306;52.516;13.290;2023-05-19T14:16:14;4.13;;;2.00;;
73954;SDS011;62306;52.516;13.290;2023-05-19T14:18:41;2.53;;;1.63;;
73954;SDS011;62306;52.516;13.290;2023-05-19T14:21:08;3.42;;;1.60;;
73954;SDS011;62306;52.516;13.290;2023-05-19T14:23:35;4.05;;;1.58;;
73954;SDS011;62306;52.516;13.290;2023-05-19T14:26:02;5.18;;;2.10;;
73954;SDS011;62306;52.516;13.290;2023-05-19T14:28:31;6.32;;;1.70;;
73954;SDS011;62306;52.516;13.290;2023-05-19T14:30:57;4.97;;;1.65;;
73954;SDS011;62306;52.516;13.290;2023-05-19T14:33:24;4.22;;;1.65;;
73954;SDS011;62306;52.516;13.290;2023-05-19T14:35:51;9.52;;;2.03;;
73954;SDS011;62306;52.516;13.290;2023-05-19T14:38:19;3.42;;;1.70;;
73954;SDS011;62306;52.516;13.290;2023-05-19T14:40:46;2.65;;;1.70;;
73954;SDS011;62306;52.516;13.290;2023-05-19T14:43:13;3.28;;;2.03;;
73954;SDS011;62306;52.516;13.290;2023-05-19T14:45:41;4.40;;;1.63;;
73954;SDS011;62306;52.516;13.290;2023-05-19T14:48:09;2.80;;;1.80;;